Time;durP1;ratioP1;P1;durP2;ratioP2;P2;SDS_P1;SDS_P2;PMS_P1;PMS_P2;Temp;Humidity;BMP_temperature;BMP_pressure;BME280_temperature;BME280_humidity;BME280_pressure;Samples;Min_cycle;Max_cycle;Signal;HPM_P1;HPM_P2
2022/10/21 00:02:11;;;;;;;22.70;14.60;;;;;;;;;;5049151;28;20204;-74
2022/10/21 00:04:37;;;;;;;20.70;13.70;;;;;;;;;;5052859;28;20682;-74
2022/10/21 00:07:02;;;;;;;23.65;14.77;;;;;;;;;;5048109;28;20231;-74
2022/10/21 00:09:27;;;;;;;22.40;15.07;;;;;;;;;;5047650;28;20170;-74
2022/10/21 00:11:52;;;;;;;19.48;14.02;;;;;;;;;;5052181;28;20209;-74
2022/10/21 00:14:18;;;;;;;22.73;14.77;;;;;;;;;;5049839;28;20733;-74
2022/10/21 00:16:44;;;;;;;25.20;14.95;;;;;;;;;;5048697;28;20178;-75
2022/10/21 00:19:09;;;;;;;20.75;14.32;;;;;;;;;;5048362;28;20204;-74
2022/10/21 00:21:35;;;;;;;22.80;14.50;;;;;;;;;;5045602;28;20193;-74
2022/10/21 00:24:00;;;;;;;19.80;14.18;;;;;;;;;;5053271;28;20694;-74
2022/10/21 00:26:26;;;;;;;23.63;15.05;;;;;;;;;;5051695;28;20190;-74
2022/10/21 00:28:55;;;;;;;22.85;14.63;;;;;;;;;;5054125;28;20174;-74
2022/10/21 00:31:20;;;;;;;20.80;14.07;;;;;;;;;;5051640;28;20197;-74
2022/10/21 00:33:45;;;;;;;19.48;13.57;;;;;;;;;;5058200;28;20199;-74
2022/10/21 00:36:13;;;;;;;21.83;13.95;;;;;;;;;;5051760;28;20180;-74
2022/10/21 00:38:39;;;;;;;24.15;14.00;;;;;;;;;;5050908;28;20201;-74
2022/10/21 00:41:04;;;;;;;17.95;13.88;;;;;;;;;;5048950;28;20598;-74
2022/10/21 00:43:30;;;;;;;21.38;13.98;;;;;;;;;;5050799;28;20573;-75
2022/10/21 00:45:58;;;;;;;23.55;14.95;;;;;;;;;;5048419;28;20257;-74
2022/10/21 00:48:29;;;;;;;23.05;15.52;;;;;;;;;;5050201;28;20182;-75
2022/10/21 00:50:57;;;;;;;17.67;13.02;;;;;;;;;;5048077;28;20675;-74
2022/10/21 00:53:23;;;;;;;23.25;13.45;;;;;;;;;;5047109;28;20174;-74
2022/10/21 00:55:51;;;;;;;21.60;12.77;;;;;;;;;;5058512;28;20561;-74
2022/10/21 00:58:17;;;;;;;20.45;13.15;;;;;;;;;;5050225;28;20228;-74
2022/10/21 01:00:42;;;;;;;16.50;12.30;;;;;;;;;;5051217;28;20222;-74
2022/10/21 01:03:08;;;;;;;14.80;10.90;;;;;;;;;;5054566;28;20185;-74
2022/10/21 01:05:35;;;;;;;16.17;11.23;;;;;;;;;;5052218;28;20256;-74
2022/10/21 01:08:00;;;;;;;15.30;10.38;;;;;;;;;;5053519;28;20197;-74
2022/10/21 01:10:25;;;;;;;13.30;9.50;;;;;;;;;;5053026;28;20201;-74
2022/10/21 01:12:50;;;;;;;15.27;10.20;;;;;;;;;;5052528;28;20651;-74
2022/10/21 01:15:20;;;;;;;14.18;9.77;;;;;;;;;;5046817;28;20217;-74
2022/10/21 01:17:45;;;;;;;13.55;8.80;;;;;;;;;;5062533;28;20423;-74
2022/10/21 01:20:10;;;;;;;18.07;10.10;;;;;;;;;;5050942;28;20554;-73
2022/10/21 01:22:35;;;;;;;16.73;10.03;;;;;;;;;;5055733;28;20425;-74
2022/10/21 01:25:03;;;;;;;16.13;9.90;;;;;;;;;;5047499;28;20971;-74
2022/10/21 01:27:31;;;;;;;12.95;8.50;;;;;;;;;;5056382;28;20782;-74
2022/10/21 01:30:07;;;;;;;14.50;9.75;;;;;;;;;;5050471;28;20450;-74
2022/10/21 01:32:50;;;;;;;11.60;8.02;;;;;;;;;;5047629;28;20743;-74
2022/10/21 01:35:15;;;;;;;14.27;8.98;;;;;;;;;;5050434;28;20193;-74
2022/10/21 01:37:47;;;;;;;13.60;8.77;;;;;;;;;;5051296;28;20173;-74
2022/10/21 01:40:12;;;;;;;16.38;7.90;;;;;;;;;;5044403;28;20411;-74
2022/10/21 01:42:52;;;;;;;13.90;9.00;;;;;;;;;;5046170;28;20178;-74
2022/10/21 01:45:17;;;;;;;14.88;8.80;;;;;;;;;;5048704;28;20197;-74
2022/10/21 01:47:45;;;;;;;10.47;8.43;;;;;;;;;;5049418;28;20165;-74
2022/10/21 01:50:13;;;;;;;15.82;8.60;;;;;;;;;;5064026;28;20425;-74
2022/10/21 01:52:39;;;;;;;19.23;11.27;;;;;;;;;;5045600;28;20683;-74
2022/10/21 01:55:07;;;;;;;17.88;10.30;;;;;;;;;;5050131;28;20205;-74
2022/10/21 01:57:34;;;;;;;13.77;8.98;;;;;;;;;;5050709;28;20273;-74
2022/10/21 02:00:00;;;;;;;21.40;11.23;;;;;;;;;;5045336;28;20562;-74
2022/10/21 02:02:27;;;;;;;18.73;11.27;;;;;;;;;;5049615;28;20177;-74
2022/10/21 02:04:53;;;;;;;17.85;11.20;;;;;;;;;;5049166;28;20575;-74
2022/10/21 02:07:18;;;;;;;22.13;11.57;;;;;;;;;;5050090;28;20647;-75
2022/10/21 02:09:44;;;;;;;22.15;13.90;;;;;;;;;;5064255;28;20185;-75
2022/10/21 02:12:09;;;;;;;19.00;11.38;;;;;;;;;;5046065;28;20642;-74
2022/10/21 02:14:42;;;;;;;19.88;12.45;;;;;;;;;;5049119;28;20307;-74
2022/10/21 02:17:10;;;;;;;23.95;12.18;;;;;;;;;;5044623;28;20182;-73
2022/10/21 02:19:35;;;;;;;22.08;12.77;;;;;;;;;;5045542;28;20176;-73
2022/10/21 02:22:02;;;;;;;17.38;11.95;;;;;;;;;;5065159;28;20182;-75
2022/10/21 02:24:35;;;;;;;20.90;11.05;;;;;;;;;;5046200;28;20271;-75
2022/10/21 02:27:00;;;;;;;20.50;11.70;;;;;;;;;;5049503;28;20730;-75
2022/10/21 02:29:27;;;;;;;21.08;12.48;;;;;;;;;;5053231;28;20181;-75
2022/10/21 02:31:58;;;;;;;18.27;12.32;;;;;;;;;;5052742;28;20687;-75
2022/10/21 02:34:29;;;;;;;19.23;12.15;;;;;;;;;;5053168;28;20201;-76
2022/10/21 02:36:54;;;;;;;17.48;11.70;;;;;;;;;;5048975;28;20174;-75
2022/10/21 02:39:24;;;;;;;22.50;13.53;;;;;;;;;;5053939;28;20177;-75
2022/10/21 02:41:49;;;;;;;20.30;12.07;;;;;;;;;;5064098;28;20434;-75
2022/10/21 02:44:15;;;;;;;18.17;12.25;;;;;;;;;;5053390;28;20584;-75
2022/10/21 02:46:41;;;;;;;23.00;12.38;;;;;;;;;;5052309;28;20173;-75
2022/10/21 02:49:07;;;;;;;25.08;14.27;;;;;;;;;;5053001;28;20641;-74
2022/10/21 02:51:32;;;;;;;19.85;13.35;;;;;;;;;;5053441;28;20252;-75
2022/10/21 02:53:57;;;;;;;19.67;12.73;;;;;;;;;;5052159;28;20259;-75
2022/10/21 02:56:23;;;;;;;23.70;14.82;;;;;;;;;;5053498;28;20251;-75
2022/10/21 02:58:48;;;;;;;25.17;14.38;;;;;;;;;;5052199;28;20173;-73
2022/10/21 03:01:13;;;;;;;25.05;14.15;;;;;;;;;;5054020;28;20193;-73
2022/10/21 03:03:38;;;;;;;22.83;15.07;;;;;;;;;;5052503;28;20475;-73
2022/10/21 03:06:03;;;;;;;21.27;12.98;;;;;;;;;;5052350;28;20184;-75
2022/10/21 03:08:29;;;;;;;19.23;12.23;;;;;;;;;;5052244;28;20178;-74
2022/10/21 03:10:54;;;;;;;21.58;14.48;;;;;;;;;;5050632;28;20212;-73
2022/10/21 03:13:20;;;;;;;25.77;13.82;;;;;;;;;;5057662;28;20201;-73
2022/10/21 03:15:45;;;;;;;24.83;14.60;;;;;;;;;;5047491;28;20557;-73
2022/10/21 03:18:10;;;;;;;28.35;15.70;;;;;;;;;;5058750;28;21484;-74
2022/10/21 03:20:35;;;;;;;23.27;14.07;;;;;;;;;;5053820;28;20180;-73
2022/10/21 03:23:00;;;;;;;28.20;14.13;;;;;;;;;;5050559;28;20557;-74
2022/10/21 03:25:26;;;;;;;25.08;14.10;;;;;;;;;;5050830;28;20489;-74
2022/10/21 03:27:51;;;;;;;27.15;15.45;;;;;;;;;;5051110;28;20189;-74
2022/10/21 03:30:16;;;;;;;27.20;15.80;;;;;;;;;;5053967;28;20185;-74
2022/10/21 03:32:42;;;;;;;22.80;14.27;;;;;;;;;;5052927;28;20186;-73
2022/10/21 03:35:07;;;;;;;25.48;15.23;;;;;;;;;;5049575;28;20205;-74
2022/10/21 03:37:32;;;;;;;24.95;15.32;;;;;;;;;;5050655;28;20177;-74
2022/10/21 03:39:57;;;;;;;25.65;14.57;;;;;;;;;;5050211;28;20182;-74
2022/10/21 03:42:22;;;;;;;23.77;16.05;;;;;;;;;;5049848;28;20675;-74
2022/10/21 03:44:48;;;;;;;25.17;14.38;;;;;;;;;;5051966;28;20280;-74
2022/10/21 03:47:13;;;;;;;25.40;14.27;;;;;;;;;;5051683;28;20651;-73
2022/10/21 03:49:38;;;;;;;30.90;16.50;;;;;;;;;;5052112;28;20201;-76
2022/10/21 03:52:03;;;;;;;26.55;15.00;;;;;;;;;;5054701;28;20198;-74
2022/10/21 03:54:28;;;;;;;24.90;15.25;;;;;;;;;;5051838;28;20221;-73
2022/10/21 03:56:54;;;;;;;28.02;16.90;;;;;;;;;;5049107;28;20197;-73
2022/10/21 03:59:19;;;;;;;29.88;17.33;;;;;;;;;;5053989;28;20212;-73
2022/10/21 04:01:44;;;;;;;25.63;16.13;;;;;;;;;;5048296;28;20532;-74
2022/10/21 04:04:09;;;;;;;28.83;16.88;;;;;;;;;;5052370;28;20205;-74
2022/10/21 04:06:34;;;;;;;33.05;17.95;;;;;;;;;;5051352;28;20177;-74
2022/10/21 04:09:00;;;;;;;29.10;15.63;;;;;;;;;;5051299;28;20224;-74
2022/10/21 04:11:25;;;;;;;27.73;14.85;;;;;;;;;;5055610;28;20198;-74
2022/10/21 04:13:50;;;;;;;25.83;14.82;;;;;;;;;;5051973;28;20268;-74
2022/10/21 04:16:17;;;;;;;25.58;15.63;;;;;;;;;;5048872;28;20209;-74
2022/10/21 04:18:42;;;;;;;26.38;14.88;;;;;;;;;;5061803;28;20184;-74
2022/10/21 04:21:08;;;;;;;26.25;14.40;;;;;;;;;;5054723;28;20260;-74
2022/10/21 04:23:33;;;;;;;27.75;15.07;;;;;;;;;;5048989;28;20269;-74
2022/10/21 04:25:58;;;;;;;25.95;15.18;;;;;;;;;;5054270;28;20217;-75
2022/10/21 04:28:23;;;;;;;26.63;16.05;;;;;;;;;;5054417;28;20729;-74
2022/10/21 04:30:49;;;;;;;28.15;16.30;;;;;;;;;;5053619;28;20208;-75
2022/10/21 04:33:14;;;;;;;28.40;16.17;;;;;;;;;;5053250;28;20182;-74
2022/10/21 04:35:39;;;;;;;30.27;16.95;;;;;;;;;;5050938;28;20197;-74
2022/10/21 04:38:04;;;;;;;26.00;15.07;;;;;;;;;;5046212;28;20209;-74
2022/10/21 04:40:30;;;;;;;24.00;14.93;;;;;;;;;;5048451;28;20184;-74
2022/10/21 04:42:55;;;;;;;25.98;15.15;;;;;;;;;;5049439;28;20256;-75
2022/10/21 04:45:20;;;;;;;24.70;15.30;;;;;;;;;;5051052;28;20195;-75
2022/10/21 04:47:45;;;;;;;27.50;15.00;;;;;;;;;;5048275;28;20176;-75
2022/10/21 04:50:10;;;;;;;27.02;14.32;;;;;;;;;;5049515;28;20384;-75
2022/10/21 04:52:36;;;;;;;26.55;15.60;;;;;;;;;;5049159;28;20225;-73
2022/10/21 04:55:01;;;;;;;26.60;13.80;;;;;;;;;;5051053;28;20675;-75
2022/10/21 04:57:26;;;;;;;28.27;14.55;;;;;;;;;;5048764;28;20177;-73
2022/10/21 04:59:51;;;;;;;24.63;14.18;;;;;;;;;;5051164;28;20169;-75
2022/10/21 05:02:17;;;;;;;26.77;14.32;;;;;;;;;;5048627;28;20185;-73
2022/10/21 05:04:42;;;;;;;28.60;14.93;;;;;;;;;;5048175;28;20201;-75
2022/10/21 05:07:07;;;;;;;26.10;14.02;;;;;;;;;;5059146;28;20189;-75
2022/10/21 05:09:32;;;;;;;30.80;15.05;;;;;;;;;;5054398;28;20185;-75
2022/10/21 05:11:58;;;;;;;29.45;13.90;;;;;;;;;;5049394;28;20209;-74
2022/10/21 05:14:23;;;;;;;26.77;14.07;;;;;;;;;;5048555;28;20260;-75
2022/10/21 05:16:48;;;;;;;22.58;13.13;;;;;;;;;;5049649;28;20166;-75
2022/10/21 05:19:13;;;;;;;25.95;14.07;;;;;;;;;;5050710;28;20201;-75
2022/10/21 05:21:39;;;;;;;25.70;14.25;;;;;;;;;;5055463;28;20186;-74
2022/10/21 05:24:04;;;;;;;27.75;14.30;;;;;;;;;;5049322;28;20631;-74
2022/10/21 05:26:29;;;;;;;26.67;12.95;;;;;;;;;;5054585;28;20189;-74
2022/10/21 05:28:55;;;;;;;24.30;13.35;;;;;;;;;;5046013;28;20231;-74
2022/10/21 05:31:20;;;;;;;24.30;13.18;;;;;;;;;;5052528;28;20201;-74
2022/10/21 05:33:46;;;;;;;24.60;13.80;;;;;;;;;;5048088;28;20204;-75
2022/10/21 05:36:11;;;;;;;26.73;12.93;;;;;;;;;;5054719;28;20207;-75
2022/10/21 05:38:36;;;;;;;28.27;14.23;;;;;;;;;;5045070;28;20178;-75
2022/10/21 05:41:02;;;;;;;23.48;13.75;;;;;;;;;;5050293;28;20181;-76
2022/10/21 05:43:27;;;;;;;21.58;12.43;;;;;;;;;;5046993;28;20553;-75
2022/10/21 05:45:52;;;;;;;23.15;13.10;;;;;;;;;;5053077;28;20670;-76
2022/10/21 05:48:17;;;;;;;24.90;13.10;;;;;;;;;;5046705;28;20192;-75
2022/10/21 05:50:44;;;;;;;23.45;12.05;;;;;;;;;;5049420;28;20208;-75
2022/10/21 05:53:09;;;;;;;21.77;12.45;;;;;;;;;;5047326;28;20181;-73
2022/10/21 05:55:34;;;;;;;21.23;11.65;;;;;;;;;;5051649;28;20211;-75
2022/10/21 05:57:59;;;;;;;15.88;10.48;;;;;;;;;;5049064;28;20251;-75
2022/10/21 06:00:24;;;;;;;23.70;13.07;;;;;;;;;;5051138;28;20223;-75
2022/10/21 06:02:50;;;;;;;18.48;11.70;;;;;;;;;;5053543;28;20179;-74
2022/10/21 06:05:15;;;;;;;21.85;12.20;;;;;;;;;;5058695;28;20201;-74
2022/10/21 06:07:40;;;;;;;22.02;11.00;;;;;;;;;;5055457;28;20220;-74
2022/10/21 06:10:06;;;;;;;24.98;11.85;;;;;;;;;;5052649;28;20269;-75
2022/10/21 06:12:31;;;;;;;22.75;12.13;;;;;;;;;;5053788;28;20213;-73
2022/10/21 06:14:56;;;;;;;22.30;11.30;;;;;;;;;;5054818;28;20288;-75
2022/10/21 06:17:21;;;;;;;25.60;12.38;;;;;;;;;;5053540;28;20655;-75
2022/10/21 06:19:47;;;;;;;20.95;11.15;;;;;;;;;;5054021;28;20537;-74
2022/10/21 06:22:12;;;;;;;17.20;9.90;;;;;;;;;;5051134;28;20200;-75
2022/10/21 06:24:37;;;;;;;20.48;10.98;;;;;;;;;;5051801;28;20902;-74
2022/10/21 06:27:03;;;;;;;20.02;11.60;;;;;;;;;;5052486;28;20181;-74
2022/10/21 06:29:28;;;;;;;21.90;11.00;;;;;;;;;;5057796;28;20182;-75
2022/10/21 06:31:53;;;;;;;19.85;10.98;;;;;;;;;;5052811;28;20539;-75
2022/10/21 06:34:19;;;;;;;23.20;11.52;;;;;;;;;;5054844;28;20190;-74
2022/10/21 06:36:44;;;;;;;23.17;10.80;;;;;;;;;;5063682;28;20169;-75
2022/10/21 06:39:09;;;;;;;19.70;10.95;;;;;;;;;;5054386;28;20188;-74
2022/10/21 06:41:34;;;;;;;20.48;10.88;;;;;;;;;;5044059;28;20617;-75
2022/10/21 06:43:59;;;;;;;19.85;11.48;;;;;;;;;;5057947;28;20200;-74
2022/10/21 06:46:25;;;;;;;20.55;11.00;;;;;;;;;;5042295;28;20201;-75
2022/10/21 06:48:50;;;;;;;29.17;13.52;;;;;;;;;;5048923;28;20170;-75
2022/10/21 06:51:17;;;;;;;24.92;11.27;;;;;;;;;;5052084;28;20205;-74
2022/10/21 06:53:43;;;;;;;24.23;11.90;;;;;;;;;;5050636;28;20185;-74
2022/10/21 06:56:10;;;;;;;22.67;11.77;;;;;;;;;;5051627;28;20554;-74
2022/10/21 06:58:36;;;;;;;21.02;10.93;;;;;;;;;;5052287;28;20545;-74
2022/10/21 07:01:15;;;;;;;24.30;12.60;;;;;;;;;;5056282;28;20192;-75
2022/10/21 07:03:40;;;;;;;21.10;12.10;;;;;;;;;;5058460;28;20177;-75
2022/10/21 07:06:05;;;;;;;24.58;12.20;;;;;;;;;;5054216;28;20196;-74
2022/10/21 07:08:31;;;;;;;27.95;12.60;;;;;;;;;;5056107;28;20184;-74
2022/10/21 07:10:56;;;;;;;22.88;11.60;;;;;;;;;;5051185;28;20209;-75
2022/10/21 07:13:22;;;;;;;23.23;12.07;;;;;;;;;;5052870;28;20209;-75
2022/10/21 07:15:47;;;;;;;21.55;11.48;;;;;;;;;;5051445;28;20193;-75
2022/10/21 07:18:12;;;;;;;20.65;11.80;;;;;;;;;;5053160;28;20185;-73
2022/10/21 07:20:38;;;;;;;20.10;11.27;;;;;;;;;;5053300;28;20185;-75
2022/10/21 07:23:03;;;;;;;35.90;13.82;;;;;;;;;;5052892;28;20180;-75
2022/10/21 07:25:28;;;;;;;25.30;12.77;;;;;;;;;;5057763;28;20227;-75
2022/10/21 07:27:53;;;;;;;21.90;11.10;;;;;;;;;;5052944;28;20173;-75
2022/10/21 07:30:19;;;;;;;19.73;10.63;;;;;;;;;;5052945;28;20659;-75
2022/10/21 07:32:44;;;;;;;22.95;12.15;;;;;;;;;;5053446;28;20173;-74
2022/10/21 07:35:09;;;;;;;24.27;12.27;;;;;;;;;;5051487;28;20201;-75
2022/10/21 07:37:34;;;;;;;23.08;11.88;;;;;;;;;;5053028;28;20174;-75
2022/10/21 07:39:59;;;;;;;25.38;11.98;;;;;;;;;;5051806;28;20220;-74
2022/10/21 07:42:26;;;;;;;22.20;11.77;;;;;;;;;;5058649;28;20177;-74
2022/10/21 07:44:52;;;;;;;18.52;11.20;;;;;;;;;;5049755;28;20579;-75
2022/10/21 07:47:17;;;;;;;22.20;10.52;;;;;;;;;;5053100;28;20197;-74
2022/10/21 07:49:42;;;;;;;18.50;11.05;;;;;;;;;;5050247;28;20223;-75
2022/10/21 07:52:08;;;;;;;25.23;11.55;;;;;;;;;;5050645;28;20216;-74
2022/10/21 07:54:33;;;;;;;17.70;10.32;;;;;;;;;;5052500;28;20197;-74
2022/10/21 07:56:58;;;;;;;19.60;10.90;;;;;;;;;;5057616;28;20519;-74
2022/10/21 07:59:23;;;;;;;20.45;10.57;;;;;;;;;;5071490;28;20195;-75
2022/10/21 08:01:49;;;;;;;19.05;10.15;;;;;;;;;;5050320;28;20178;-75
2022/10/21 08:04:15;;;;;;;20.13;9.63;;;;;;;;;;5045782;28;20198;-74
2022/10/21 08:06:41;;;;;;;19.70;9.82;;;;;;;;;;5056667;28;20178;-75
2022/10/21 08:09:06;;;;;;;18.02;9.85;;;;;;;;;;5052413;28;20181;-75
2022/10/21 08:11:32;;;;;;;18.98;9.48;;;;;;;;;;5049862;28;20205;-74
2022/10/21 08:13:58;;;;;;;17.60;9.35;;;;;;;;;;5046575;28;20189;-74
2022/10/21 08:16:23;;;;;;;17.17;8.88;;;;;;;;;;5056786;28;20185;-74
2022/10/21 08:18:49;;;;;;;16.40;8.75;;;;;;;;;;5073081;28;20173;-73
2022/10/21 08:21:14;;;;;;;15.18;10.20;;;;;;;;;;5049924;28;20186;-73
2022/10/21 08:23:39;;;;;;;15.00;8.75;;;;;;;;;;5045972;28;20192;-74
2022/10/21 08:26:06;;;;;;;13.50;8.30;;;;;;;;;;5054034;28;20182;-73
2022/10/21 08:28:31;;;;;;;13.52;8.65;;;;;;;;;;5060352;28;20191;-73
2022/10/21 08:31:03;;;;;;;18.10;9.25;;;;;;;;;;5051332;28;20675;-73
2022/10/21 08:33:29;;;;;;;16.67;8.85;;;;;;;;;;5051718;28;20178;-73
2022/10/21 08:35:54;;;;;;;16.77;8.77;;;;;;;;;;5053058;28;20318;-73
2022/10/21 08:38:20;;;;;;;12.50;8.38;;;;;;;;;;5050506;28;20181;-73
2022/10/21 08:40:45;;;;;;;18.88;9.00;;;;;;;;;;5044424;28;20220;-74
2022/10/21 08:43:22;;;;;;;14.40;8.48;;;;;;;;;;5050294;28;20715;-75
2022/10/21 08:45:50;;;;;;;14.88;8.25;;;;;;;;;;5049904;28;20232;-75
2022/10/21 08:48:18;;;;;;;14.23;7.45;;;;;;;;;;5053315;28;20212;-75
2022/10/21 08:50:46;;;;;;;16.27;7.90;;;;;;;;;;5046851;28;20591;-75
2022/10/21 08:53:32;;;;;;;11.55;7.88;;;;;;;;;;5048741;28;20664;-74
2022/10/21 08:56:01;;;;;;;11.75;8.25;;;;;;;;;;5048765;28;20663;-74
2022/10/21 08:58:26;;;;;;;12.20;8.60;;;;;;;;;;5049433;28;20181;-73
2022/10/21 09:00:54;;;;;;;10.18;7.53;;;;;;;;;;5053803;28;20176;-73
2022/10/21 09:03:19;;;;;;;12.70;7.45;;;;;;;;;;5060634;28;20225;-74
2022/10/21 09:05:47;;;;;;;12.00;7.32;;;;;;;;;;5052439;28;20218;-75
2022/10/21 09:08:18;;;;;;;12.35;7.13;;;;;;;;;;5050716;28;20599;-72
2022/10/21 09:10:54;;;;;;;9.23;6.68;;;;;;;;;;5044843;28;20213;-73
2022/10/21 09:13:20;;;;;;;10.18;6.38;;;;;;;;;;5047794;28;20173;-75
2022/10/21 09:15:57;;;;;;;10.05;6.05;;;;;;;;;;5047290;28;20217;-75
2022/10/21 09:18:40;;;;;;;10.60;7.22;;;;;;;;;;5047689;28;20176;-75
2022/10/21 09:21:15;;;;;;;10.15;5.55;;;;;;;;;;5046364;28;20177;-72
2022/10/21 09:24:00;;;;;;;8.18;6.07;;;;;;;;;;5044451;28;20609;-73
2022/10/21 09:26:28;;;;;;;10.05;6.05;;;;;;;;;;5058853;22;20244;-69
2022/10/21 09:28:53;;;;;;;9.70;5.53;;;;;;;;;;5041198;28;20260;-69
2022/10/21 09:31:20;;;;;;;8.95;5.93;;;;;;;;;;5047228;28;20305;-70
2022/10/21 09:33:54;;;;;;;9.75;5.18;;;;;;;;;;5047410;28;20590;-70
2022/10/21 09:36:28;;;;;;;8.77;4.97;;;;;;;;;;5048666;28;20288;-67
2022/10/21 09:38:59;;;;;;;9.68;5.05;;;;;;;;;;5048102;28;20180;-69
2022/10/21 09:41:27;;;;;;;7.85;5.00;;;;;;;;;;5042300;28;20207;-69
2022/10/21 09:43:54;;;;;;;10.30;4.68;;;;;;;;;;5047167;28;20209;-69
2022/10/21 09:46:20;;;;;;;10.93;4.93;;;;;;;;;;5046114;28;20280;-69
2022/10/21 09:48:45;;;;;;;11.02;5.85;;;;;;;;;;5044557;28;20695;-69
2022/10/21 09:51:17;;;;;;;5.57;4.00;;;;;;;;;;5044307;28;20651;-69
2022/10/21 09:53:45;;;;;;;5.85;4.15;;;;;;;;;;5041092;28;20986;-69
2022/10/21 09:56:19;;;;;;;7.82;5.05;;;;;;;;;;5045495;28;20308;-70
2022/10/21 09:58:47;;;;;;;7.25;4.32;;;;;;;;;;5044829;28;20177;-69
2022/10/21 10:01:20;;;;;;;7.22;4.60;;;;;;;;;;5044094;28;20181;-69
2022/10/21 10:03:51;;;;;;;6.43;4.07;;;;;;;;;;5040055;28;20223;-69
2022/10/21 10:06:30;;;;;;;7.22;4.38;;;;;;;;;;5048020;28;20221;-70
2022/10/21 10:09:05;;;;;;;4.40;3.08;;;;;;;;;;5048058;28;20559;-69
2022/10/21 10:11:30;;;;;;;7.13;3.80;;;;;;;;;;5043643;28;20212;-69
2022/10/21 10:13:55;;;;;;;5.90;3.35;;;;;;;;;;5048091;28;20170;-69
2022/10/21 10:16:28;;;;;;;7.65;3.33;;;;;;;;;;5049047;28;20529;-67
2022/10/21 10:19:12;;;;;;;5.28;2.55;;;;;;;;;;5047456;28;20267;-67
2022/10/21 10:21:37;;;;;;;4.82;2.75;;;;;;;;;;5047998;28;20687;-67
2022/10/21 10:24:04;;;;;;;3.33;2.42;;;;;;;;;;5048968;28;20200;-67
2022/10/21 10:26:30;;;;;;;6.47;2.38;;;;;;;;;;5049092;28;20214;-67
2022/10/21 10:28:58;;;;;;;3.70;2.55;;;;;;;;;;5049343;28;20181;-68
2022/10/21 10:31:25;;;;;;;3.95;2.13;;;;;;;;;;5047971;28;20212;-67
2022/10/21 10:33:52;;;;;;;5.63;2.33;;;;;;;;;;5047843;28;20366;-67
2022/10/21 10:36:27;;;;;;;4.47;2.42;;;;;;;;;;5048554;28;20208;-68
2022/10/21 10:38:54;;;;;;;3.92;2.00;;;;;;;;;;5049233;28;20223;-68
2022/10/21 10:41:20;;;;;;;8.35;2.58;;;;;;;;;;5042754;28;20273;-67
2022/10/21 10:43:49;;;;;;;4.07;2.42;;;;;;;;;;5040966;28;20269;-67
2022/10/21 10:46:33;;;;;;;4.05;2.85;;;;;;;;;;5042497;28;20284;-67
2022/10/21 10:49:04;;;;;;;3.63;1.88;;;;;;;;;;5042737;28;20182;-67
2022/10/21 10:51:31;;;;;;;4.18;1.77;;;;;;;;;;5042675;28;20247;-68
2022/10/21 10:54:00;;;;;;;5.55;2.20;;;;;;;;;;5036515;28;20743;-67
2022/10/21 10:56:27;;;;;;;24.90;3.22;;;;;;;;;;5042037;28;20221;-67
2022/10/21 10:59:07;;;;;;;3.38;1.70;;;;;;;;;;5042288;28;20262;-67
2022/10/21 11:01:44;;;;;;;4.28;1.58;;;;;;;;;;5042183;28;21306;-67
2022/10/21 11:04:28;;;;;;;5.90;1.92;;;;;;;;;;5041237;28;20185;-67
2022/10/21 11:06:57;;;;;;;4.13;1.75;;;;;;;;;;5050514;28;20178;-67
2022/10/21 11:09:23;;;;;;;2.35;1.45;;;;;;;;;;5041905;28;20182;-67
2022/10/21 11:11:50;;;;;;;3.42;1.83;;;;;;;;;;5044509;28;20204;-67
2022/10/21 11:14:16;;;;;;;5.65;1.55;;;;;;;;;;5042441;28;20209;-67
2022/10/21 11:16:49;;;;;;;5.28;1.65;;;;;;;;;;5041109;28;20637;-67
2022/10/21 11:19:24;;;;;;;3.35;1.77;;;;;;;;;;5050661;28;20174;-68
2022/10/21 11:21:54;;;;;;;4.88;1.60;;;;;;;;;;5040275;28;20189;-69
2022/10/21 11:24:38;;;;;;;3.15;1.98;;;;;;;;;;5047478;28;20185;-68
2022/10/21 11:27:09;;;;;;;4.35;1.77;;;;;;;;;;5048549;28;20303;-69
2022/10/21 11:29:37;;;;;;;3.42;1.90;;;;;;;;;;5045797;28;20202;-68
2022/10/21 11:32:28;;;;;;;4.25;2.10;;;;;;;;;;5042747;28;20578;-69
2022/10/21 11:35:12;;;;;;;5.20;2.47;;;;;;;;;;5020805;28;20706;-68
2022/10/21 11:37:37;;;;;;;3.08;2.00;;;;;;;;;;5044955;28;20698;-69
2022/10/21 11:40:22;;;;;;;3.47;2.00;;;;;;;;;;5051142;28;20220;-68
2022/10/21 11:42:49;;;;;;;4.07;2.10;;;;;;;;;;5033817;28;20430;-69
2022/10/21 11:45:33;;;;;;;4.60;2.10;;;;;;;;;;5049536;28;20674;-68
2022/10/21 11:47:58;;;;;;;2.30;1.75;;;;;;;;;;5043952;28;20180;-68
2022/10/21 11:50:47;;;;;;;5.57;2.07;;;;;;;;;;5051034;28;20260;-69
2022/10/21 11:53:25;;;;;;;3.60;2.25;;;;;;;;;;5042912;28;20454;-68
2022/10/21 11:56:05;;;;;;;3.30;1.85;;;;;;;;;;5048130;28;20670;-69
2022/10/21 11:58:46;;;;;;;4.60;1.83;;;;;;;;;;5047634;28;20260;-69
2022/10/21 12:01:11;;;;;;;4.63;2.08;;;;;;;;;;5044730;28;20232;-68
2022/10/21 12:03:54;;;;;;;4.53;2.23;;;;;;;;;;5051332;28;20178;-68
2022/10/21 12:06:40;;;;;;;4.50;1.48;;;;;;;;;;5048782;28;20422;-68
2022/10/21 12:09:11;;;;;;;4.15;1.98;;;;;;;;;;5045761;28;20331;-68
2022/10/21 12:11:45;;;;;;;5.55;2.15;;;;;;;;;;5047075;28;20229;-68
2022/10/21 12:14:16;;;;;;;4.88;2.15;;;;;;;;;;5045773;28;20173;-68
2022/10/21 12:16:42;;;;;;;3.65;1.92;;;;;;;;;;5048131;28;20204;-68
2022/10/21 12:19:09;;;;;;;3.10;2.33;;;;;;;;;;5045750;28;20184;-68
2022/10/21 12:21:39;;;;;;;5.03;1.83;;;;;;;;;;5045689;28;20261;-69
2022/10/21 12:24:20;;;;;;;3.40;1.90;;;;;;;;;;5038859;28;20514;-69
2022/10/21 12:26:48;;;;;;;5.25;1.92;;;;;;;;;;5044249;28;20209;-66
2022/10/21 12:29:18;;;;;;;4.85;2.20;;;;;;;;;;5051081;28;20177;-68
2022/10/21 12:31:48;;;;;;;3.20;2.30;;;;;;;;;;5046588;28;20207;-66
2022/10/21 12:34:14;;;;;;;4.05;2.13;;;;;;;;;;5049399;28;20579;-66
2022/10/21 12:36:42;;;;;;;5.03;2.13;;;;;;;;;;5048528;28;20189;-69
2022/10/21 12:39:15;;;;;;;5.80;2.13;;;;;;;;;;5048378;28;20671;-66
2022/10/21 12:41:42;;;;;;;5.75;2.58;;;;;;;;;;5049775;28;20720;-67
2022/10/21 12:44:10;;;;;;;4.55;2.80;;;;;;;;;;5046678;28;20319;-66
2022/10/21 12:46:35;;;;;;;7.13;2.45;;;;;;;;;;5050492;28;20701;-67
2022/10/21 12:49:03;;;;;;;4.03;2.25;;;;;;;;;;5063780;28;20190;-66
2022/10/21 12:51:29;;;;;;;4.85;2.65;;;;;;;;;;5048854;28;20200;-66
2022/10/21 12:54:10;;;;;;;4.35;2.08;;;;;;;;;;5045783;28;20222;-67
2022/10/21 12:56:45;;;;;;;3.13;1.88;;;;;;;;;;5048059;28;20189;-67
2022/10/21 12:59:25;;;;;;;6.18;3.45;;;;;;;;;;5050476;28;20196;-66
2022/10/21 13:02:06;;;;;;;3.83;2.00;;;;;;;;;;5045441;28;20624;-67
2022/10/21 13:04:32;;;;;;;3.05;1.85;;;;;;;;;;5049757;28;20205;-67
2022/10/21 13:07:04;;;;;;;3.50;2.33;;;;;;;;;;5050792;28;20236;-67
2022/10/21 13:09:34;;;;;;;4.10;1.80;;;;;;;;;;5048224;28;20177;-67
2022/10/21 13:12:19;;;;;;;2.97;2.13;;;;;;;;;;5044566;28;20208;-67
2022/10/21 13:14:45;;;;;;;3.53;1.70;;;;;;;;;;5034611;28;20229;-67
2022/10/21 13:17:14;;;;;;;5.50;2.45;;;;;;;;;;5048948;28;20590;-67
2022/10/21 13:19:40;;;;;;;3.53;2.15;;;;;;;;;;5042881;28;20248;-67
2022/10/21 13:22:13;;;;;;;3.33;2.28;;;;;;;;;;5046309;28;20298;-67
2022/10/21 13:24:39;;;;;;;4.15;1.88;;;;;;;;;;5048207;28;20612;-67
2022/10/21 13:27:24;;;;;;;5.97;1.77;;;;;;;;;;5050152;28;20181;-66
2022/10/21 13:29:49;;;;;;;5.38;2.25;;;;;;;;;;5043955;28;20178;-67
2022/10/21 13:32:16;;;;;;;4.55;1.30;;;;;;;;;;5049525;28;20243;-67
2022/10/21 13:35:01;;;;;;;2.13;1.35;;;;;;;;;;5039576;28;20193;-67
2022/10/21 13:37:29;;;;;;;2.58;1.40;;;;;;;;;;5035172;28;20200;-67
2022/10/21 13:39:56;;;;;;;3.45;1.40;;;;;;;;;;5048027;28;20244;-67
2022/10/21 13:42:21;;;;;;;2.40;1.20;;;;;;;;;;5047330;28;20186;-67
2022/10/21 13:44:51;;;;;;;4.53;1.05;;;;;;;;;;5047960;28;20208;-67
2022/10/21 13:47:37;;;;;;;3.38;1.20;;;;;;;;;;5044781;28;20299;-67
2022/10/21 13:50:19;;;;;;;2.72;1.30;;;;;;;;;;5045476;28;20221;-67
2022/10/21 13:52:44;;;;;;;2.85;1.00;;;;;;;;;;5046136;28;20263;-67
2022/10/21 13:55:19;;;;;;;2.45;1.42;;;;;;;;;;5046641;28;20662;-66
2022/10/21 13:57:45;;;;;;;1.45;0.80;;;;;;;;;;5046770;28;20215;-67
2022/10/21 14:00:43;;;;;;;1.63;0.90;;;;;;;;;;5048834;28;20266;-66
2022/10/21 14:03:15;;;;;;;2.20;0.77;;;;;;;;;;5026657;28;20273;-67
2022/10/21 14:05:51;;;;;;;1.55;1.00;;;;;;;;;;5040982;28;20876;-67
2022/10/21 14:08:25;;;;;;;2.15;0.90;;;;;;;;;;5056162;28;20242;-67
2022/10/21 14:10:51;;;;;;;3.22;1.00;;;;;;;;;;5039004;28;20658;-66
2022/10/21 14:13:19;;;;;;;2.75;1.15;;;;;;;;;;5048547;28;20189;-67
2022/10/21 14:15:44;;;;;;;1.95;0.68;;;;;;;;;;5046856;28;20281;-66
2022/10/21 14:18:21;;;;;;;4.63;0.93;;;;;;;;;;5048726;28;20205;-67
2022/10/21 14:20:47;;;;;;;4.15;0.85;;;;;;;;;;5047394;28;20261;-67
2022/10/21 14:23:17;;;;;;;3.35;1.00;;;;;;;;;;5046770;28;20226;-67
2022/10/21 14:25:43;;;;;;;4.07;0.90;;;;;;;;;;5045534;28;20236;-67
2022/10/21 14:28:08;;;;;;;3.20;0.90;;;;;;;;;;5053326;28;20325;-67
2022/10/21 14:30:35;;;;;;;3.85;0.93;;;;;;;;;;5050044;28;20627;-66
2022/10/21 14:33:02;;;;;;;2.67;0.90;;;;;;;;;;5051769;28;20185;-67
2022/10/21 14:35:29;;;;;;;1.23;0.70;;;;;;;;;;5049077;28;20278;-67